createdAt,value
2022-12-23T00:03:39.981Z,8.40
2022-12-23T00:14:21.781Z,8.38
2022-12-23T00:24:43.455Z,8.36
2022-12-23T00:35:04.981Z,8.33
2022-12-23T00:45:26.572Z,8.38
2022-12-23T00:55:48.722Z,8.41
2022-12-23T01:06:10.151Z,8.42
2022-12-23T01:16:31.628Z,8.40
2022-12-23T01:26:53.072Z,8.41
2022-12-23T01:37:14.436Z,8.40
2022-12-23T01:47:38.804Z,8.39
2022-12-23T01:58:08.027Z,8.40
2022-12-23T02:08:48.270Z,8.46
2022-12-23T02:19:31.722Z,8.49
2022-12-23T02:30:08.075Z,8.47
2022-12-23T02:40:29.395Z,8.48
2022-12-23T02:50:52.495Z,8.48
2022-12-23T03:01:15.260Z,8.46
2022-12-23T03:11:44.910Z,8.47
2022-12-23T03:22:25.973Z,8.47
2022-12-23T03:32:49.320Z,8.46
2022-12-23T03:43:13.908Z,8.40
2022-12-23T03:53:38.568Z,8.40
2022-12-23T04:04:09.181Z,8.35
2022-12-23T04:14:31.730Z,8.36
2022-12-23T04:24:53.082Z,8.23
2022-12-23T04:35:14.496Z,8.21
2022-12-23T04:45:35.850Z,8.17
2022-12-23T04:55:57.222Z,8.16
2022-12-23T05:06:18.587Z,8.16
2022-12-23T05:16:40.103Z,8.19
2022-12-23T05:27:01.494Z,8.14
2022-12-23T05:37:22.852Z,8.10
2022-12-23T05:47:44.254Z,8.01
2022-12-23T05:58:05.811Z,8.01
2022-12-23T06:08:27.184Z,7.93
2022-12-23T06:18:48.559Z,7.94
2022-12-23T06:29:10.542Z,7.88
2022-12-23T06:39:31.991Z,7.87
2022-12-23T06:49:53.434Z,7.85
2022-12-23T07:00:15.190Z,7.74
2022-12-23T07:10:36.611Z,7.72
2022-12-23T07:20:59.774Z,7.76
2022-12-23T07:31:21.410Z,7.82
2022-12-23T07:41:42.889Z,7.78
2022-12-23T07:52:04.373Z,7.69
2022-12-23T08:02:26.010Z,7.65
2022-12-23T08:12:47.574Z,7.72
2022-12-23T08:23:08.935Z,7.77
2022-12-23T08:33:30.445Z,7.82
2022-12-23T08:43:51.981Z,7.87
2022-12-23T08:54:13.354Z,7.91
2022-12-23T09:04:36.032Z,7.90
2022-12-23T09:14:57.424Z,8.04
2022-12-23T09:25:18.822Z,8.10
2022-12-23T09:35:40.232Z,8.21
2022-12-23T09:46:20.491Z,8.21
2022-12-23T09:56:41.915Z,8.19
2022-12-23T10:07:06.380Z,8.15
2022-12-23T10:17:35.036Z,8.17
2022-12-23T10:27:56.420Z,8.20
2022-12-23T10:38:23.866Z,8.26
2022-12-23T10:49:08.738Z,8.37
2022-12-23T10:59:35.442Z,8.54
2022-12-23T11:10:01.195Z,8.67
2022-12-23T11:20:22.592Z,8.74
2022-12-23T11:30:55.398Z,8.78
2022-12-23T11:41:22.321Z,8.81
2022-12-23T11:51:44.549Z,8.82
2022-12-23T12:02:14.745Z,8.84
2022-12-23T12:12:36.230Z,8.87
2022-12-23T12:23:08.926Z,8.84
2022-12-23T12:33:34.393Z,8.96
2022-12-23T12:44:00.458Z,8.97
2022-12-23T12:54:40.096Z,9.00
2022-12-23T13:05:07.574Z,9.11
2022-12-23T13:15:38.055Z,9.18
2022-12-23T13:26:05.153Z,9.18
2022-12-23T13:36:26.663Z,9.12
2022-12-23T13:47:00.469Z,9.14
2022-12-23T13:57:36.502Z,9.20
2022-12-23T14:08:03.464Z,9.17
2022-12-23T14:18:40.268Z,9.13
2022-12-23T14:29:21.788Z,9.14
2022-12-23T14:39:43.422Z,9.13
2022-12-23T14:50:23.735Z,9.09
2022-12-23T15:00:56.454Z,9.02
2022-12-23T15:11:22.780Z,8.94
2022-12-23T15:21:47.513Z,8.90
2022-12-23T15:32:11.859Z,8.84
2022-12-23T15:42:35.433Z,8.78
2022-12-23T15:53:01.821Z,8.73
2022-12-23T16:03:34.081Z,8.66
2022-12-23T16:14:00.576Z,8.61
2022-12-23T16:24:22.106Z,8.62
2022-12-23T16:34:45.394Z,8.58
2022-12-23T16:45:07.073Z,8.48
2022-12-23T16:55:28.427Z,8.44
2022-12-23T17:05:49.839Z,8.44
2022-12-23T17:16:21.892Z,8.49
2022-12-23T17:26:43.272Z,8.47
2022-12-23T17:37:12.513Z,8.45
2022-12-23T17:47:33.921Z,8.45
2022-12-23T17:57:55.338Z,8.44
2022-12-23T18:08:16.956Z,8.37
2022-12-23T18:18:46.145Z,8.31
2022-12-23T18:29:08.393Z,8.29
2022-12-23T18:39:29.750Z,8.26
2022-12-23T18:49:51.107Z,8.20
2022-12-23T19:00:23.027Z,8.16
2022-12-23T19:10:45.714Z,8.14
2022-12-23T19:21:07.235Z,8.14
2022-12-23T19:31:29.912Z,8.11
2022-12-23T19:41:51.374Z,8.15
2022-12-23T19:52:12.791Z,8.08
2022-12-23T20:02:34.215Z,8.07
2022-12-23T20:12:55.603Z,8.05
2022-12-23T20:23:17.056Z,8.01
2022-12-23T20:33:39.011Z,8.02
2022-12-23T20:44:33.388Z,8.03
2022-12-23T20:54:41.844Z,8.02
2022-12-23T21:05:03.321Z,7.99
2022-12-23T21:15:24.746Z,7.96
2022-12-23T21:25:46.112Z,7.94
2022-12-23T21:36:07.996Z,7.94
2022-12-23T21:46:29.887Z,7.94
2022-12-23T21:56:51.330Z,7.90
2022-12-23T22:07:12.846Z,7.83
2022-12-23T22:17:34.330Z,7.83
2022-12-23T22:27:57.462Z,7.84
2022-12-23T22:38:18.848Z,7.82
2022-12-23T22:48:40.261Z,7.77
2022-12-23T22:59:01.670Z,7.74
2022-12-23T23:09:23.080Z,7.71
2022-12-23T23:19:44.519Z,7.71
2022-12-23T23:30:06.403Z,7.74
2022-12-23T23:40:28.033Z,7.75
2022-12-23T23:50:49.464Z,7.70
